sensor_id;sensor_type;location;lat;lon;timestamp;temperature;humidity
13326;DHT22;6732;51.044;3.746;2022-08-14T00:01:45;24.10;80.50
13326;DHT22;6732;51.044;3.746;2022-08-14T00:04:11;24.10;80.20
13326;DHT22;6732;51.044;3.746;2022-08-14T00:06:37;24.00;79.80
13326;DHT22;6732;51.044;3.746;2022-08-14T00:09:03;24.00;80.50
13326;DHT22;6732;51.044;3.746;2022-08-14T00:11:29;24.00;80.20
13326;DHT22;6732;51.044;3.746;2022-08-14T00:13:55;24.00;80.60
13326;DHT22;6732;51.044;3.746;2022-08-14T00:16:21;24.00;80.30
13326;DHT22;6732;51.044;3.746;2022-08-14T00:18:48;23.90;80.70
13326;DHT22;6732;51.044;3.746;2022-08-14T00:21:14;23.90;80.40
13326;DHT22;6732;51.044;3.746;2022-08-14T00:23:40;23.90;80.30
13326;DHT22;6732;51.044;3.746;2022-08-14T00:26:06;23.90;80.10
13326;DHT22;6732;51.044;3.746;2022-08-14T00:28:33;23.80;80.30
13326;DHT22;6732;51.044;3.746;2022-08-14T00:31:00;23.80;80.20
13326;DHT22;6732;51.044;3.746;2022-08-14T00:33:27;23.80;80.20
13326;DHT22;6732;51.044;3.746;2022-08-14T00:35:53;23.80;80.70
13326;DHT22;6732;51.044;3.746;2022-08-14T00:38:20;23.80;80.80
13326;DHT22;6732;51.044;3.746;2022-08-14T00:40:46;23.70;81.10
13326;DHT22;6732;51.044;3.746;2022-08-14T00:43:12;23.70;81.10
13326;DHT22;6732;51.044;3.746;2022-08-14T00:45:38;23.70;80.80
13326;DHT22;6732;51.044;3.746;2022-08-14T00:48:04;23.60;80.90
13326;DHT22;6732;51.044;3.746;2022-08-14T00:50:31;23.60;81.20
13326;DHT22;6732;51.044;3.746;2022-08-14T00:52:58;23.60;81.50
13326;DHT22;6732;51.044;3.746;2022-08-14T00:55:28;23.50;81.30
13326;DHT22;6732;51.044;3.746;2022-08-14T00:57:57;23.50;81.10
13326;DHT22;6732;51.044;3.746;2022-08-14T01:00:42;23.50;81.10
13326;DHT22;6732;51.044;3.746;2022-08-14T01:03:09;23.50;80.80
13326;DHT22;6732;51.044;3.746;2022-08-14T01:05:35;23.50;81.00
13326;DHT22;6732;51.044;3.746;2022-08-14T01:08:01;23.50;81.20
13326;DHT22;6732;51.044;3.746;2022-08-14T01:10:29;23.40;81.50
13326;DHT22;6732;51.044;3.746;2022-08-14T01:13:20;23.40;81.90
13326;DHT22;6732;51.044;3.746;2022-08-14T01:15:50;23.40;82.30
13326;DHT22;6732;51.044;3.746;2022-08-14T01:18:17;23.30;82.50
13326;DHT22;6732;51.044;3.746;2022-08-14T01:21:02;23.30;82.40
13326;DHT22;6732;51.044;3.746;2022-08-14T01:23:29;23.30;82.40
13326;DHT22;6732;51.044;3.746;2022-08-14T01:25:56;23.20;82.60
13326;DHT22;6732;51.044;3.746;2022-08-14T01:28:24;23.20;82.30
13326;DHT22;6732;51.044;3.746;2022-08-14T01:30:53;23.20;82.40
13326;DHT22;6732;51.044;3.746;2022-08-14T01:33:23;23.20;82.70
13326;DHT22;6732;51.044;3.746;2022-08-14T01:35:57;23.20;82.60
13326;DHT22;6732;51.044;3.746;2022-08-14T01:38:26;23.10;82.70
13326;DHT22;6732;51.044;3.746;2022-08-14T01:40:56;23.10;82.90
13326;DHT22;6732;51.044;3.746;2022-08-14T01:43:22;23.10;82.50
13326;DHT22;6732;51.044;3.746;2022-08-14T01:45:57;23.10;82.70
13326;DHT22;6732;51.044;3.746;2022-08-14T01:48:25;23.00;83.00
13326;DHT22;6732;51.044;3.746;2022-08-14T01:50:55;23.00;82.70
13326;DHT22;6732;51.044;3.746;2022-08-14T01:53:22;23.00;83.00
13326;DHT22;6732;51.044;3.746;2022-08-14T01:55:48;23.00;82.80
13326;DHT22;6732;51.044;3.746;2022-08-14T01:58:16;22.90;82.90
13326;DHT22;6732;51.044;3.746;2022-08-14T02:00:43;22.90;82.90
13326;DHT22;6732;51.044;3.746;2022-08-14T02:03:09;22.90;83.00
13326;DHT22;6732;51.044;3.746;2022-08-14T02:05:35;22.90;83.20
13326;DHT22;6732;51.044;3.746;2022-08-14T02:08:01;22.80;83.10
13326;DHT22;6732;51.044;3.746;2022-08-14T02:10:27;22.80;83.00
13326;DHT22;6732;51.044;3.746;2022-08-14T02:13:00;22.80;82.80
13326;DHT22;6732;51.044;3.746;2022-08-14T02:15:33;22.80;82.80
13326;DHT22;6732;51.044;3.746;2022-08-14T02:17:59;22.80;82.90
13326;DHT22;6732;51.044;3.746;2022-08-14T02:20:30;22.70;83.00
13326;DHT22;6732;51.044;3.746;2022-08-14T02:22:59;22.70;83.70
13326;DHT22;6732;51.044;3.746;2022-08-14T02:25:25;22.70;83.70
13326;DHT22;6732;51.044;3.746;2022-08-14T02:27:52;22.70;83.90
13326;DHT22;6732;51.044;3.746;2022-08-14T02:30:22;22.60;83.80
13326;DHT22;6732;51.044;3.746;2022-08-14T02:32:50;22.60;84.00
13326;DHT22;6732;51.044;3.746;2022-08-14T02:35:16;22.60;83.80
13326;DHT22;6732;51.044;3.746;2022-08-14T02:37:47;22.60;84.00
13326;DHT22;6732;51.044;3.746;2022-08-14T02:40:14;22.60;83.90
13326;DHT22;6732;51.044;3.746;2022-08-14T02:42:40;22.50;83.90
13326;DHT22;6732;51.044;3.746;2022-08-14T02:45:06;22.50;84.20
13326;DHT22;6732;51.044;3.746;2022-08-14T02:47:33;22.50;83.90
13326;DHT22;6732;51.044;3.746;2022-08-14T02:50:00;22.50;83.90
13326;DHT22;6732;51.044;3.746;2022-08-14T02:52:26;22.50;84.10
13326;DHT22;6732;51.044;3.746;2022-08-14T02:54:52;22.50;84.10
13326;DHT22;6732;51.044;3.746;2022-08-14T02:57:20;22.40;84.20
13326;DHT22;6732;51.044;3.746;2022-08-14T02:59:49;22.40;84.40
13326;DHT22;6732;51.044;3.746;2022-08-14T03:02:16;22.40;84.70
13326;DHT22;6732;51.044;3.746;2022-08-14T03:04:42;22.40;84.80
13326;DHT22;6732;51.044;3.746;2022-08-14T03:07:08;22.30;84.90
13326;DHT22;6732;51.044;3.746;2022-08-14T03:09:35;22.30;85.10
13326;DHT22;6732;51.044;3.746;2022-08-14T03:12:02;22.30;85.10
13326;DHT22;6732;51.044;3.746;2022-08-14T03:14:29;22.30;85.30
13326;DHT22;6732;51.044;3.746;2022-08-14T03:16:55;22.20;85.00
13326;DHT22;6732;51.044;3.746;2022-08-14T03:19:21;22.20;85.00
13326;DHT22;6732;51.044;3.746;2022-08-14T03:21:47;22.20;85.30
13326;DHT22;6732;51.044;3.746;2022-08-14T03:24:13;22.20;85.00
13326;DHT22;6732;51.044;3.746;2022-08-14T03:26:43;22.20;85.00
13326;DHT22;6732;51.044;3.746;2022-08-14T03:29:11;22.10;85.20
13326;DHT22;6732;51.044;3.746;2022-08-14T03:31:39;22.10;85.30
13326;DHT22;6732;51.044;3.746;2022-08-14T03:34:08;22.10;85.30
13326;DHT22;6732;51.044;3.746;2022-08-14T03:36:37;22.10;85.60
13326;DHT22;6732;51.044;3.746;2022-08-14T03:39:07;22.00;85.60
13326;DHT22;6732;51.044;3.746;2022-08-14T03:41:34;22.00;85.60
13326;DHT22;6732;51.044;3.746;2022-08-14T03:44:03;22.00;86.30
13326;DHT22;6732;51.044;3.746;2022-08-14T03:46:35;22.00;85.70
13326;DHT22;6732;51.044;3.746;2022-08-14T03:49:03;22.00;85.70
13326;DHT22;6732;51.044;3.746;2022-08-14T03:51:30;22.00;85.80
13326;DHT22;6732;51.044;3.746;2022-08-14T03:53:58;21.90;85.50
13326;DHT22;6732;51.044;3.746;2022-08-14T03:56:25;21.90;85.90
13326;DHT22;6732;51.044;3.746;2022-08-14T03:58:54;21.90;86.00
13326;DHT22;6732;51.044;3.746;2022-08-14T04:01:23;21.90;86.10
13326;DHT22;6732;51.044;3.746;2022-08-14T04:03:52;21.90;86.50
13326;DHT22;6732;51.044;3.746;2022-08-14T04:06:19;21.80;86.50
13326;DHT22;6732;51.044;3.746;2022-08-14T04:08:45;21.80;86.50
13326;DHT22;6732;51.044;3.746;2022-08-14T04:11:12;21.80;86.50
13326;DHT22;6732;51.044;3.746;2022-08-14T04:13:41;21.80;86.70
13326;DHT22;6732;51.044;3.746;2022-08-14T04:16:16;21.70;86.60
13326;DHT22;6732;51.044;3.746;2022-08-14T04:18:44;21.70;86.60
13326;DHT22;6732;51.044;3.746;2022-08-14T04:21:12;21.80;86.80
13326;DHT22;6732;51.044;3.746;2022-08-14T04:23:38;21.70;86.90
13326;DHT22;6732;51.044;3.746;2022-08-14T04:26:06;21.70;87.20
13326;DHT22;6732;51.044;3.746;2022-08-14T04:28:34;21.70;87.50
13326;DHT22;6732;51.044;3.746;2022-08-14T04:31:02;21.70;87.50
13326;DHT22;6732;51.044;3.746;2022-08-14T04:33:28;21.60;87.70
13326;DHT22;6732;51.044;3.746;2022-08-14T04:35:55;21.60;87.80
13326;DHT22;6732;51.044;3.746;2022-08-14T04:38:21;21.60;87.90
13326;DHT22;6732;51.044;3.746;2022-08-14T04:41:06;21.60;87.90
13326;DHT22;6732;51.044;3.746;2022-08-14T04:43:51;21.60;88.20
13326;DHT22;6732;51.044;3.746;2022-08-14T04:46:19;21.60;88.20
13326;DHT22;6732;51.044;3.746;2022-08-14T04:48:45;21.50;88.10
13326;DHT22;6732;51.044;3.746;2022-08-14T04:51:13;21.50;88.40
13326;DHT22;6732;51.044;3.746;2022-08-14T04:53:44;21.50;88.30
13326;DHT22;6732;51.044;3.746;2022-08-14T04:56:15;21.50;88.20
13326;DHT22;6732;51.044;3.746;2022-08-14T04:58:42;21.40;88.50
13326;DHT22;6732;51.044;3.746;2022-08-14T05:01:09;21.40;88.30
13326;DHT22;6732;51.044;3.746;2022-08-14T05:03:36;21.40;88.40
13326;DHT22;6732;51.044;3.746;2022-08-14T05:06:05;21.40;88.60
13326;DHT22;6732;51.044;3.746;2022-08-14T05:08:32;21.40;88.60
13326;DHT22;6732;51.044;3.746;2022-08-14T05:10:59;21.40;88.90
13326;DHT22;6732;51.044;3.746;2022-08-14T05:13:28;21.40;89.00
13326;DHT22;6732;51.044;3.746;2022-08-14T05:15:56;21.40;89.10
13326;DHT22;6732;51.044;3.746;2022-08-14T05:18:28;21.40;89.00
13326;DHT22;6732;51.044;3.746;2022-08-14T05:20:58;21.40;89.00
13326;DHT22;6732;51.044;3.746;2022-08-14T05:23:29;21.30;89.10
13326;DHT22;6732;51.044;3.746;2022-08-14T05:25:58;21.30;89.30
13326;DHT22;6732;51.044;3.746;2022-08-14T05:28:46;21.30;89.30
13326;DHT22;6732;51.044;3.746;2022-08-14T05:31:14;21.30;89.40
13326;DHT22;6732;51.044;3.746;2022-08-14T05:33:43;21.30;89.50
13326;DHT22;6732;51.044;3.746;2022-08-14T05:36:11;21.30;89.70
13326;DHT22;6732;51.044;3.746;2022-08-14T05:38:39;21.30;89.50
13326;DHT22;6732;51.044;3.746;2022-08-14T05:41:09;21.30;89.40
13326;DHT22;6732;51.044;3.746;2022-08-14T05:43:36;21.30;89.30
13326;DHT22;6732;51.044;3.746;2022-08-14T05:46:02;21.30;89.30
13326;DHT22;6732;51.044;3.746;2022-08-14T05:48:28;21.30;89.40
13326;DHT22;6732;51.044;3.746;2022-08-14T05:50:55;21.30;89.30
13326;DHT22;6732;51.044;3.746;2022-08-14T05:53:25;21.30;89.20
13326;DHT22;6732;51.044;3.746;2022-08-14T05:55:52;21.30;89.30
13326;DHT22;6732;51.044;3.746;2022-08-14T05:58:18;21.30;89.00
13326;DHT22;6732;51.044;3.746;2022-08-14T06:00:45;21.30;89.00
13326;DHT22;6732;51.044;3.746;2022-08-14T06:03:13;21.30;89.50
13326;DHT22;6732;51.044;3.746;2022-08-14T06:05:46;21.30;89.30
13326;DHT22;6732;51.044;3.746;2022-08-14T06:10:41;21.30;89.40
13326;DHT22;6732;51.044;3.746;2022-08-14T06:13:07;21.30;89.40
13326;DHT22;6732;51.044;3.746;2022-08-14T06:15:33;21.30;89.00
13326;DHT22;6732;51.044;3.746;2022-08-14T06:17:59;21.30;89.20
13326;DHT22;6732;51.044;3.746;2022-08-14T06:20:26;21.30;89.50
13326;DHT22;6732;51.044;3.746;2022-08-14T06:22:52;21.40;90.00
13326;DHT22;6732;51.044;3.746;2022-08-14T06:25:18;21.40;90.10
13326;DHT22;6732;51.044;3.746;2022-08-14T06:27:46;21.40;90.00
13326;DHT22;6732;51.044;3.746;2022-08-14T06:30:22;21.40;89.70
13326;DHT22;6732;51.044;3.746;2022-08-14T06:32:49;21.40;89.60
13326;DHT22;6732;51.044;3.746;2022-08-14T06:35:16;21.50;89.80
13326;DHT22;6732;51.044;3.746;2022-08-14T06:37:49;21.50;89.70
13326;DHT22;6732;51.044;3.746;2022-08-14T06:40:18;21.50;89.60
13326;DHT22;6732;51.044;3.746;2022-08-14T06:42:44;21.50;90.00
13326;DHT22;6732;51.044;3.746;2022-08-14T06:45:11;21.60;89.70
13326;DHT22;6732;51.044;3.746;2022-08-14T06:47:38;21.60;89.60
13326;DHT22;6732;51.044;3.746;2022-08-14T06:50:16;21.60;89.80
13326;DHT22;6732;51.044;3.746;2022-08-14T06:52:43;21.70;89.70
13326;DHT22;6732;51.044;3.746;2022-08-14T06:55:12;21.70;89.60
13326;DHT22;6732;51.044;3.746;2022-08-14T06:57:41;21.70;89.80
13326;DHT22;6732;51.044;3.746;2022-08-14T07:00:13;21.70;90.00
13326;DHT22;6732;51.044;3.746;2022-08-14T07:02:39;21.80;90.00
13326;DHT22;6732;51.044;3.746;2022-08-14T07:05:24;21.80;89.60
13326;DHT22;6732;51.044;3.746;2022-08-14T07:08:28;21.80;88.70
13326;DHT22;6732;51.044;3.746;2022-08-14T07:10:58;21.90;89.00
13326;DHT22;6732;51.044;3.746;2022-08-14T07:13:25;21.90;89.10
13326;DHT22;6732;51.044;3.746;2022-08-14T07:15:53;22.00;88.80
13326;DHT22;6732;51.044;3.746;2022-08-14T07:18:24;22.00;88.70
13326;DHT22;6732;51.044;3.746;2022-08-14T07:20:51;22.00;88.60
13326;DHT22;6732;51.044;3.746;2022-08-14T07:23:18;22.10;88.40
13326;DHT22;6732;51.044;3.746;2022-08-14T07:25:47;22.10;88.10
13326;DHT22;6732;51.044;3.746;2022-08-14T07:28:15;22.20;88.10
13326;DHT22;6732;51.044;3.746;2022-08-14T07:30:43;22.20;88.20
13326;DHT22;6732;51.044;3.746;2022-08-14T07:33:10;22.30;87.00
13326;DHT22;6732;51.044;3.746;2022-08-14T07:35:38;22.30;86.80
13326;DHT22;6732;51.044;3.746;2022-08-14T07:38:06;22.40;86.90
13326;DHT22;6732;51.044;3.746;2022-08-14T07:40:33;22.40;86.60
13326;DHT22;6732;51.044;3.746;2022-08-14T07:43:00;22.40;86.20
13326;DHT22;6732;51.044;3.746;2022-08-14T07:45:26;22.50;85.40
13326;DHT22;6732;51.044;3.746;2022-08-14T07:47:53;22.50;84.70
13326;DHT22;6732;51.044;3.746;2022-08-14T07:50:23;22.60;85.80
13326;DHT22;6732;51.044;3.746;2022-08-14T07:53:09;22.60;85.70
13326;DHT22;6732;51.044;3.746;2022-08-14T07:55:35;22.70;84.10
13326;DHT22;6732;51.044;3.746;2022-08-14T07:58:02;22.70;84.80
13326;DHT22;6732;51.044;3.746;2022-08-14T08:00:28;22.80;84.40
13326;DHT22;6732;51.044;3.746;2022-08-14T08:02:55;22.90;82.90
13326;DHT22;6732;51.044;3.746;2022-08-14T08:05:22;22.90;83.50
13326;DHT22;6732;51.044;3.746;2022-08-14T08:07:52;23.00;85.40
13326;DHT22;6732;51.044;3.746;2022-08-14T08:10:24;23.10;85.50
13326;DHT22;6732;51.044;3.746;2022-08-14T08:13:17;23.10;85.90
13326;DHT22;6732;51.044;3.746;2022-08-14T08:15:46;23.20;85.30
13326;DHT22;6732;51.044;3.746;2022-08-14T08:18:14;23.20;83.90
13326;DHT22;6732;51.044;3.746;2022-08-14T08:20:48;23.30;84.10
13326;DHT22;6732;51.044;3.746;2022-08-14T08:23:16;23.40;84.30
13326;DHT22;6732;51.044;3.746;2022-08-14T08:25:45;23.40;84.40
13326;DHT22;6732;51.044;3.746;2022-08-14T08:28:14;23.50;83.00
13326;DHT22;6732;51.044;3.746;2022-08-14T08:30:46;23.50;83.20
13326;DHT22;6732;51.044;3.746;2022-08-14T08:33:12;23.60;83.80
13326;DHT22;6732;51.044;3.746;2022-08-14T08:35:41;23.60;83.50
13326;DHT22;6732;51.044;3.746;2022-08-14T08:38:12;23.70;83.30
13326;DHT22;6732;51.044;3.746;2022-08-14T08:40:41;23.80;84.20
13326;DHT22;6732;51.044;3.746;2022-08-14T08:43:18;23.80;84.00
13326;DHT22;6732;51.044;3.746;2022-08-14T08:45:56;23.90;84.40
13326;DHT22;6732;51.044;3.746;2022-08-14T08:48:23;23.90;85.60
13326;DHT22;6732;51.044;3.746;2022-08-14T08:50:54;24.00;85.10
13326;DHT22;6732;51.044;3.746;2022-08-14T08:53:20;24.00;86.10
13326;DHT22;6732;51.044;3.746;2022-08-14T08:55:46;24.00;85.30
13326;DHT22;6732;51.044;3.746;2022-08-14T08:58:16;24.10;84.50
13326;DHT22;6732;51.044;3.746;2022-08-14T09:00:49;24.10;84.00
13326;DHT22;6732;51.044;3.746;2022-08-14T09:03:21;24.20;84.00
13326;DHT22;6732;51.044;3.746;2022-08-14T09:06:02;24.30;83.20
13326;DHT22;6732;51.044;3.746;2022-08-14T09:08:32;24.30;82.20
13326;DHT22;6732;51.044;3.746;2022-08-14T09:11:04;24.40;82.10
13326;DHT22;6732;51.044;3.746;2022-08-14T09:13:31;24.40;82.80
13326;DHT22;6732;51.044;3.746;2022-08-14T09:15:58;24.50;82.20
13326;DHT22;6732;51.044;3.746;2022-08-14T09:18:27;24.50;83.90
13326;DHT22;6732;51.044;3.746;2022-08-14T09:20:55;24.60;83.00
13326;DHT22;6732;51.044;3.746;2022-08-14T09:23:22;24.60;83.20
13326;DHT22;6732;51.044;3.746;2022-08-14T09:25:49;24.60;84.30
13326;DHT22;6732;51.044;3.746;2022-08-14T09:28:17;24.70;84.30
13326;DHT22;6732;51.044;3.746;2022-08-14T09:30:48;24.70;81.80
13326;DHT22;6732;51.044;3.746;2022-08-14T09:36:26;24.80;80.80
13326;DHT22;6732;51.044;3.746;2022-08-14T09:39:30;24.90;79.70
13326;DHT22;6732;51.044;3.746;2022-08-14T09:47:16;25.10;79.10
13326;DHT22;6732;51.044;3.746;2022-08-14T09:49:42;25.10;79.20
13326;DHT22;6732;51.044;3.746;2022-08-14T09:52:14;25.20;77.60
13326;DHT22;6732;51.044;3.746;2022-08-14T09:54:43;25.20;77.90
13326;DHT22;6732;51.044;3.746;2022-08-14T09:57:10;25.30;79.60
13326;DHT22;6732;51.044;3.746;2022-08-14T09:59:43;25.40;79.80
13326;DHT22;6732;51.044;3.746;2022-08-14T10:02:27;25.40;79.70
13326;DHT22;6732;51.044;3.746;2022-08-14T10:05:07;25.50;80.70
13326;DHT22;6732;51.044;3.746;2022-08-14T10:07:47;25.60;81.50
13326;DHT22;6732;51.044;3.746;2022-08-14T10:13:03;25.70;78.80
13326;DHT22;6732;51.044;3.746;2022-08-14T10:15:31;25.80;78.80
13326;DHT22;6732;51.044;3.746;2022-08-14T10:18:09;25.80;79.10
13326;DHT22;6732;51.044;3.746;2022-08-14T10:20:38;25.90;76.30
13326;DHT22;6732;51.044;3.746;2022-08-14T10:23:18;26.00;77.90
13326;DHT22;6732;51.044;3.746;2022-08-14T10:25:49;26.10;77.30
13326;DHT22;6732;51.044;3.746;2022-08-14T10:28:17;26.20;77.00
13326;DHT22;6732;51.044;3.746;2022-08-14T10:30:45;26.20;75.60
13326;DHT22;6732;51.044;3.746;2022-08-14T10:33:26;26.20;73.90
13326;DHT22;6732;51.044;3.746;2022-08-14T10:35:54;26.30;73.10
13326;DHT22;6732;51.044;3.746;2022-08-14T10:38:32;26.40;75.30
13326;DHT22;6732;51.044;3.746;2022-08-14T10:41:37;26.40;74.80
13326;DHT22;6732;51.044;3.746;2022-08-14T10:44:07;26.50;75.40
13326;DHT22;6732;51.044;3.746;2022-08-14T10:46:53;26.50;75.30
13326;DHT22;6732;51.044;3.746;2022-08-14T10:49:29;26.50;72.00
13326;DHT22;6732;51.044;3.746;2022-08-14T10:54:30;26.50;71.80
13326;DHT22;6732;51.044;3.746;2022-08-14T10:59:55;26.50;69.70
13326;DHT22;6732;51.044;3.746;2022-08-14T11:02:35;26.60;68.80
13326;DHT22;6732;51.044;3.746;2022-08-14T11:05:04;26.60;69.40
13326;DHT22;6732;51.044;3.746;2022-08-14T11:07:31;26.70;68.90
13326;DHT22;6732;51.044;3.746;2022-08-14T11:10:04;26.70;66.70
13326;DHT22;6732;51.044;3.746;2022-08-14T11:12:53;26.70;66.70
13326;DHT22;6732;51.044;3.746;2022-08-14T11:15:24;26.70;63.60
13326;DHT22;6732;51.044;3.746;2022-08-14T11:17:53;26.80;63.10
13326;DHT22;6732;51.044;3.746;2022-08-14T11:20:23;26.90;63.80
13326;DHT22;6732;51.044;3.746;2022-08-14T11:22:52;27.00;63.20
13326;DHT22;6732;51.044;3.746;2022-08-14T11:25:20;27.00;63.90
13326;DHT22;6732;51.044;3.746;2022-08-14T11:27:50;27.00;62.40
13326;DHT22;6732;51.044;3.746;2022-08-14T11:30:19;27.10;61.60
13326;DHT22;6732;51.044;3.746;2022-08-14T11:32:47;27.10;62.20
13326;DHT22;6732;51.044;3.746;2022-08-14T11:35:18;27.20;61.90
13326;DHT22;6732;51.044;3.746;2022-08-14T11:37:57;27.30;63.40
13326;DHT22;6732;51.044;3.746;2022-08-14T11:40:32;27.40;63.90
13326;DHT22;6732;51.044;3.746;2022-08-14T11:43:01;27.40;62.30
13326;DHT22;6732;51.044;3.746;2022-08-14T11:45:29;27.40;62.00
13326;DHT22;6732;51.044;3.746;2022-08-14T11:48:00;27.40;61.30
13326;DHT22;6732;51.044;3.746;2022-08-14T11:50:29;27.50;62.00
13326;DHT22;6732;51.044;3.746;2022-08-14T11:52:57;27.50;61.70
13326;DHT22;6732;51.044;3.746;2022-08-14T11:55:25;27.60;62.10
13326;DHT22;6732;51.044;3.746;2022-08-14T11:58:06;27.60;60.70
13326;DHT22;6732;51.044;3.746;2022-08-14T12:00:54;27.70;62.70
13326;DHT22;6732;51.044;3.746;2022-08-14T12:03:45;27.70;62.10
13326;DHT22;6732;51.044;3.746;2022-08-14T12:08:38;27.80;62.90
13326;DHT22;6732;51.044;3.746;2022-08-14T12:11:07;27.80;61.10
13326;DHT22;6732;51.044;3.746;2022-08-14T12:13:33;27.90;60.10
13326;DHT22;6732;51.044;3.746;2022-08-14T12:16:03;27.90;59.90
13326;DHT22;6732;51.044;3.746;2022-08-14T12:18:38;28.00;60.10
13326;DHT22;6732;51.044;3.746;2022-08-14T12:21:21;28.00;62.90
13326;DHT22;6732;51.044;3.746;2022-08-14T12:24:09;28.10;62.40
13326;DHT22;6732;51.044;3.746;2022-08-14T12:26:36;28.10;62.90
13326;DHT22;6732;51.044;3.746;2022-08-14T12:29:10;28.20;62.20
13326;DHT22;6732;51.044;3.746;2022-08-14T12:31:37;28.20;61.00
13326;DHT22;6732;51.044;3.746;2022-08-14T12:34:06;28.20;60.00
13326;DHT22;6732;51.044;3.746;2022-08-14T12:36:36;28.30;60.50
13326;DHT22;6732;51.044;3.746;2022-08-14T12:39:18;28.30;60.50
13326;DHT22;6732;51.044;3.746;2022-08-14T12:41:53;28.30;59.90
13326;DHT22;6732;51.044;3.746;2022-08-14T12:44:32;28.40;63.10
13326;DHT22;6732;51.044;3.746;2022-08-14T12:47:07;28.40;61.80
13326;DHT22;6732;51.044;3.746;2022-08-14T12:49:35;28.50;61.20
13326;DHT22;6732;51.044;3.746;2022-08-14T12:52:05;28.50;59.90
13326;DHT22;6732;51.044;3.746;2022-08-14T12:54:34;28.50;59.80
13326;DHT22;6732;51.044;3.746;2022-08-14T12:57:10;28.60;60.40
13326;DHT22;6732;51.044;3.746;2022-08-14T12:59:38;28.60;60.40
13326;DHT22;6732;51.044;3.746;2022-08-14T13:02:04;28.60;61.30
13326;DHT22;6732;51.044;3.746;2022-08-14T13:04:31;28.60;61.80
13326;DHT22;6732;51.044;3.746;2022-08-14T13:07:02;28.70;62.70
13326;DHT22;6732;51.044;3.746;2022-08-14T13:09:34;28.70;60.50
13326;DHT22;6732;51.044;3.746;2022-08-14T13:12:02;28.70;59.60
13326;DHT22;6732;51.044;3.746;2022-08-14T13:14:30;28.70;59.50
13326;DHT22;6732;51.044;3.746;2022-08-14T13:16:59;28.80;60.90
13326;DHT22;6732;51.044;3.746;2022-08-14T13:19:28;28.80;59.60
13326;DHT22;6732;51.044;3.746;2022-08-14T13:21:55;28.80;59.80
13326;DHT22;6732;51.044;3.746;2022-08-14T13:24:23;28.90;61.30
13326;DHT22;6732;51.044;3.746;2022-08-14T13:26:51;28.90;58.40
13326;DHT22;6732;51.044;3.746;2022-08-14T13:29:20;28.90;59.70
13326;DHT22;6732;51.044;3.746;2022-08-14T13:31:54;28.90;60.70
13326;DHT22;6732;51.044;3.746;2022-08-14T13:34:22;28.90;66.10
13326;DHT22;6732;51.044;3.746;2022-08-14T13:36:49;28.90;64.30
13326;DHT22;6732;51.044;3.746;2022-08-14T13:39:16;28.80;62.30
13326;DHT22;6732;51.044;3.746;2022-08-14T13:41:43;28.70;61.50
13326;DHT22;6732;51.044;3.746;2022-08-14T13:44:10;28.60;59.30
13326;DHT22;6732;51.044;3.746;2022-08-14T13:46:37;28.60;61.20
13326;DHT22;6732;51.044;3.746;2022-08-14T13:49:03;28.50;60.30
13326;DHT22;6732;51.044;3.746;2022-08-14T13:51:38;28.50;59.70
13326;DHT22;6732;51.044;3.746;2022-08-14T13:54:05;28.50;58.50
13326;DHT22;6732;51.044;3.746;2022-08-14T13:56:37;28.60;61.30
13326;DHT22;6732;51.044;3.746;2022-08-14T13:59:03;28.60;61.60
13326;DHT22;6732;51.044;3.746;2022-08-14T14:01:33;28.60;62.20
13326;DHT22;6732;51.044;3.746;2022-08-14T14:04:03;28.60;61.40
13326;DHT22;6732;51.044;3.746;2022-08-14T14:06:32;28.60;60.20
13326;DHT22;6732;51.044;3.746;2022-08-14T14:08:58;28.60;60.10
13326;DHT22;6732;51.044;3.746;2022-08-14T14:11:25;28.60;59.50
13326;DHT22;6732;51.044;3.746;2022-08-14T14:13:53;28.60;60.50
13326;DHT22;6732;51.044;3.746;2022-08-14T14:16:20;28.60;58.30
13326;DHT22;6732;51.044;3.746;2022-08-14T14:18:48;28.60;59.10
13326;DHT22;6732;51.044;3.746;2022-08-14T14:21:19;28.60;63.50
13326;DHT22;6732;51.044;3.746;2022-08-14T14:23:46;28.60;63.10
13326;DHT22;6732;51.044;3.746;2022-08-14T14:26:13;28.70;63.00
13326;DHT22;6732;51.044;3.746;2022-08-14T14:28:46;28.70;62.70
13326;DHT22;6732;51.044;3.746;2022-08-14T14:31:24;28.60;62.80
13326;DHT22;6732;51.044;3.746;2022-08-14T14:33:55;28.60;62.20
13326;DHT22;6732;51.044;3.746;2022-08-14T14:36:24;28.60;61.20
13326;DHT22;6732;51.044;3.746;2022-08-14T14:38:53;28.70;62.20
13326;DHT22;6732;51.044;3.746;2022-08-14T14:41:25;28.70;62.10
13326;DHT22;6732;51.044;3.746;2022-08-14T14:43:53;28.70;61.30
13326;DHT22;6732;51.044;3.746;2022-08-14T14:46:21;28.70;60.50
13326;DHT22;6732;51.044;3.746;2022-08-14T14:48:47;28.70;62.00
13326;DHT22;6732;51.044;3.746;2022-08-14T14:51:15;28.70;61.40
13326;DHT22;6732;51.044;3.746;2022-08-14T14:53:42;28.70;62.70
13326;DHT22;6732;51.044;3.746;2022-08-14T14:56:09;28.70;63.70
13326;DHT22;6732;51.044;3.746;2022-08-14T14:58:36;28.70;62.30
13326;DHT22;6732;51.044;3.746;2022-08-14T15:01:03;28.70;62.50
13326;DHT22;6732;51.044;3.746;2022-08-14T15:03:30;28.60;61.30
13326;DHT22;6732;51.044;3.746;2022-08-14T15:05:57;28.70;60.90
13326;DHT22;6732;51.044;3.746;2022-08-14T15:08:24;28.60;59.80
13326;DHT22;6732;51.044;3.746;2022-08-14T15:10:50;28.70;60.20
13326;DHT22;6732;51.044;3.746;2022-08-14T15:13:18;28.60;61.90
13326;DHT22;6732;51.044;3.746;2022-08-14T15:15:44;28.60;62.60
13326;DHT22;6732;51.044;3.746;2022-08-14T15:18:10;28.60;60.80
13326;DHT22;6732;51.044;3.746;2022-08-14T15:20:36;28.60;61.70
13326;DHT22;6732;51.044;3.746;2022-08-14T15:23:02;28.60;63.20
13326;DHT22;6732;51.044;3.746;2022-08-14T15:25:28;28.60;63.90
13326;DHT22;6732;51.044;3.746;2022-08-14T15:27:57;28.50;62.10
13326;DHT22;6732;51.044;3.746;2022-08-14T15:30:23;28.50;62.80
13326;DHT22;6732;51.044;3.746;2022-08-14T15:32:50;28.50;63.60
13326;DHT22;6732;51.044;3.746;2022-08-14T15:35:16;28.60;63.20
13326;DHT22;6732;51.044;3.746;2022-08-14T15:37:41;28.50;61.70
13326;DHT22;6732;51.044;3.746;2022-08-14T15:40:08;28.50;61.70
13326;DHT22;6732;51.044;3.746;2022-08-14T15:42:36;28.50;61.40
13326;DHT22;6732;51.044;3.746;2022-08-14T15:45:04;28.50;62.00
13326;DHT22;6732;51.044;3.746;2022-08-14T15:47:33;28.50;63.50
13326;DHT22;6732;51.044;3.746;2022-08-14T15:50:02;28.50;63.90
13326;DHT22;6732;51.044;3.746;2022-08-14T15:52:30;28.50;64.10
13326;DHT22;6732;51.044;3.746;2022-08-14T15:54:58;28.40;64.60
13326;DHT22;6732;51.044;3.746;2022-08-14T15:57:24;28.40;65.20
13326;DHT22;6732;51.044;3.746;2022-08-14T15:59:49;28.40;64.80
13326;DHT22;6732;51.044;3.746;2022-08-14T16:02:34;28.40;64.90
13326;DHT22;6732;51.044;3.746;2022-08-14T16:05:00;28.40;65.20
13326;DHT22;6732;51.044;3.746;2022-08-14T16:07:26;28.40;64.50
13326;DHT22;6732;51.044;3.746;2022-08-14T16:09:53;28.40;65.00
13326;DHT22;6732;51.044;3.746;2022-08-14T16:12:19;28.40;65.40
13326;DHT22;6732;51.044;3.746;2022-08-14T16:14:45;28.40;65.20
13326;DHT22;6732;51.044;3.746;2022-08-14T16:17:10;28.40;65.40
13326;DHT22;6732;51.044;3.746;2022-08-14T16:19:38;28.40;65.40
13326;DHT22;6732;51.044;3.746;2022-08-14T16:22:12;28.40;65.00